Niotaze, Kansas
Current Conditions -  °F | °C
As of 11:15 PM on Saturday 20 Dec 2014 (Local Time) from KIDP Reporting Station
Overcast Overcast  
Wind Chill: 34°   Ceiling: 2300
Heat Index: 39°   Visibility: 10mi
Dew Point: 34°   Wind: 8mph
Humidity: 81%   Direction: 170°S
Pressure: 30.16"   Gusts: NA
Location:  37.07°N, 96.01°W
Report Text: KIDP 210515Z AUTO 17007KT 10SM OVC023 04/01 A3016 RMK AO2
Loading
Personal Weather Stations






























Interactive Weather Map New forecast layout! Learn more

10-Day Weather Forecast

Advertisements
Track Severe Weather on mobile